Tiempo atmosférico en la estación meteorológica de Agüimes, Las Palmas (306 m.)

Fecha
DESCASC
Temp. máxima en grados centígrados (hora)
DESCASC
Temp. mínima en grados centígrados (hora)
DESCASC
Temp. media en grados centígrados
DESCASC
Racha de viento máxima en m/sg (hora)
DESCASC
Velocidad máxima media en intervalos de 10 minutos(hora)
DESCASC
Precipitaciones diarias en mm
DESCASC
Precipitaciones de 00:00 a 06:00 en mm
DESCASC
Precipitaciones de 06:00 a 12:00 en mm
DESCASC
Precipitaciones de 12:00 a 18:00 en mm
DESCASC
Precipitaciones de 18:00 a 24:00 en mm
DESCASC
23-11-2017 25.3 (13:20) 17.1 (23:50) 21.2 8.06 (15:10) 5.28 (13:30) 0 0 0 0 0
22-11-2017 26.6 (11:30) 18.6 (05:50) 22.6 12.5 (14:20) 8.89 (12:10) 0 0 0 0 0
21-11-2017 25.4 (12:20) 18.5 (03:50) 21.9 9.17 (13:50) 5.83 (12:30) 0 0 0 0 0
20-11-2017 26.2 (15:20) 16.6 (05:10) 21.4 8.33 (00:20) 5.28 (00:20) 0 0 0 0 0
19-11-2017 22.1 (13:20) 16.7 (00:00) 19.4 11.11 (17:30) 8.06 (17:50) 0 0 0 0 0
18-11-2017 22.4 (12:20) 17 (00:00) 19.7 9.17 (19:20) 6.11 (20:00) 0 0 0 0 0
17-11-2017 22.5 (14:10) 15.8 (00:00) 19.2 10.56 (20:30) 7.5 (22:10) 0 0 0 0 0
16-11-2017 22.5 (12:40) 14.5 (00:00) 18.5 11.11 (14:10) 6.94 (13:50) 0 0 0 0 0
15-11-2017 22 (12:30) 16.4 (00:00) 19.2 14.17 (13:10) 8.89 (12:00) 0 0 0 0 0
14-11-2017 22.3 (13:20) 16.7 (00:00) 19.5 15 (11:00) 10.56 (09:20) 0 0 0 0 0
13-11-2017 22.9 (13:30) 16.9 (00:00) 19.9 14.72 (23:40) 9.17 (08:10) 0 0 0 0 0
12-11-2017 26.8 (14:40) 18.6 (00:00) 22.7 7.22 (23:40) 5.28 (02:40) 0 0 0 0 0
11-11-2017 28 (14:00) 18.7 (00:00) 23.4 10.83 (10:40) 7.5 (10:40) 0 0 0 0 0
10-11-2017 26.4 (14:30) 18.2 (00:00) 22.3 13.61 (04:20) 9.44 (04:20) 0 0 0 0 0
09-11-2017 24.6 (12:10) 16.4 (00:00) 20.5 7.78 (11:30) 5 (17:10) 0 0 0 0 0
08-11-2017 26.2 (12:50) 17.4 (00:00) 21.8 8.06 (11:00) 5 (13:50) 0 0 0 0 0
07-11-2017 24.5 (12:30) 18.3 (00:00) 21.4 16.39 (13:20) 11.11 (12:50) 0 0 0 0 0
06-11-2017 23.2 (12:20) 17.6 (00:00) 20.4 15 (15:20) 10.28 (15:10) 0.2 0 0.2 0 0
05-11-2017 23.7 (13:40) 17.7 (00:00) 20.7 13.61 (14:00) 9.72 (14:00) 0.4 0.2 0 0.2 0
04-11-2017 23.2 (13:10) 17.8 (00:00) 20.5 12.22 (15:30) 8.89 (17:10) 0 0 0 0 0
03-11-2017 22 (10:50) 16.4 (00:00) 19.2 7.78 (10:50) 4.72 (23:10) 0 0 0 0 0
02-11-2017 24.5 (13:20) 15.6 (04:00) 20.1 9.72 (09:40) 6.11 (14:20) 0 0 0 0 0
01-11-2017 25 (14:00) 16.9 (00:00) 20.9 13.61 (05:10) 10.28 (05:10) 0 0 0 0 0
31-10-2017 25.9 (13:40) 16.5 (00:00) 21.2 11.11 (22:50) 8.06 (22:40) 0 0 0 0 0
30-10-2017 28 (14:30) 15.8 (00:00) 21.9 10.28 (11:50) 7.22 (12:50) 0 0 0 0 0
29-10-2017 30.1 (10:50) 18.3 (00:00) 24.2 12.22 (13:40) 6.67 (13:40) 0 0 0 0 0
28-10-2017 28.8 (15:00) 22.6 (00:00) 25.7 9.44 (22:40) 6.39 (22:30) 0 0 0 0 0
27-10-2017 28.4 (17:00) 22.3 (00:00) 25.3 10 (03:40) 5 (03:00) 0 0 0 0 0
26-10-2017 30.8 (12:10) 21.8 (00:00) 26.3 9.17 (13:20) 6.11 (11:30) 0 0 0 0 0

Gráficas

Temp. máximas Temp. mínimas Temp. medias Precipitaciones Rachas de viento máximas Velocidades máximas media en intervalos de 10 minutos

Datos horarios

Fecha y hora oficial Temperatura (ºC) Velocidad del viento (km/h) Dirección del viento Racha (km/h) Dirección de racha Precipitación (mm) Presión (hPa) Tendencia (hPa) Humedad (%)
2017-11-24 23:00:00 20.6 5 Sudoeste 12 Sur 0 -- -- 42
2017-11-24 22:00:00 22 4 Sur 17 Sur 0 -- -- 29
2017-11-24 21:00:00 22.1 6 Sur 16 Sur 0 -- -- 29
2017-11-24 20:00:00 22.8 5 Sur 31 Sur 0 -- -- 29
2017-11-24 19:00:00 22.9 12 Sur 26 Sur 0 -- -- 26
2017-11-24 18:00:00 22.9 21 Sur 38 Sur 0 -- -- 33
2017-11-24 17:00:00 24.8 26 Sur 46 Sudoeste 0 -- -- 23
2017-11-24 16:00:00 24.9 30 Sur 51 Sur 0 -- -- 23
2017-11-24 15:00:00 25.2 23 Sur 35 Sudoeste 0 -- -- 30
2017-11-24 14:00:00 23.7 22 Sur 31 Sur 0 -- -- 39
2017-11-24 13:00:00 23.1 15 Sur 21 Sur 0 -- -- 41
2017-11-24 12:00:00 21.7 12 Sur 19 Sur 0 -- -- 68
2017-11-24 11:00:00 21.4 13 Sur 18 Sur 0 -- -- 73
2017-11-24 10:00:00 20 10 Sur 16 Sur 0 -- -- 73
2017-11-24 09:00:00 18.1 6 Sur 12 Sur 0 -- -- 88
2017-11-24 08:00:00 17.6 8 Sur 14 Sudoeste 0 -- -- 88
2017-11-24 07:00:00 17.3 10 Sudoeste 13 Sudoeste 0 -- -- 86
2017-11-24 06:00:00 17 3 Norte 8 Noroeste 0 -- -- 86
2017-11-24 05:00:00 16.7 4 Norte 8 Noroeste 0 -- -- 85
2017-11-24 04:00:00 17.3 4 Norte 14 Norte 0 -- -- 87
2017-11-24 03:00:00 17.3 11 Norte 22 Norte 0 -- -- 85
2017-11-24 02:00:00 17.5 15 Nordeste 24 Nordeste 0 -- -- 82
2017-11-24 01:00:00 16.8 7 Norte 10 Norte 0 -- -- 72
2017-11-24 00:00:00 17.1 3 Sur 6 Sudoeste 0 -- -- 72
2017-11-23 23:00:00 17.6 2 Sudoeste 4 Oeste 0 -- -- 70
2017-11-23 22:00:00 18.1 0 Calma 8 Oeste 0 -- -- 67
2017-11-23 21:00:00 17.9 3 Noroeste 7 Nordeste 0 -- -- 71
2017-11-23 20:00:00 18.8 4 Norte 9 Nordeste 0 -- -- 70
2017-11-23 19:00:00 19.9 8 Norte 10 Nordeste 0 -- -- 60
2017-11-23 18:00:00 21.6 8 Nordeste 17 Este 0 -- -- 56
2017-11-23 17:00:00 23.1 8 Este 19 Sudeste 0 -- -- 58
2017-11-23 16:00:00 23.9 9 Sudeste 29 Sur 0 -- -- 55
2017-11-23 15:00:00 24.7 18 Sur 28 Sur 0 -- -- 53
2017-11-23 14:00:00 24.9 15 Sudeste 29 Sur 0 -- -- 53
2017-11-23 13:00:00 25 16 Sur 25 Sur 0 -- -- 46
2017-11-23 12:00:00 24.5 13 Sudeste 20 Sur 0 -- -- 48
2017-11-23 11:00:00 23.4 8 Sur 15 Sur 0 -- -- 54
2017-11-23 10:00:00 23.1 9 Sur 15 Sur 0 -- -- 46
2017-11-23 09:00:00 22.1 7 Sur 13 Sur 0 -- -- 32
2017-11-23 08:00:00 19.3 4 Sur 13 Oeste 0 -- -- 23
2017-11-23 07:00:00 19.6 9 Oeste 13 Oeste 0 -- -- 21
2017-11-23 06:00:00 17.6 7 Oeste 9 Oeste 0 -- -- 24
2017-11-23 05:00:00 17.4 2 Oeste 4 Noroeste 0 -- -- 27
2017-11-23 04:00:00 18.4 3 Sudeste 5 Noroeste 0 -- -- 26
2017-11-23 03:00:00 18.6 2 Noroeste 6 Oeste 0 -- -- 26
2017-11-23 02:00:00 19.2 3 Oeste 6 Oeste 0 -- -- 22
2017-11-23 01:00:00 19.9 3 Sudoeste 8 Sudoeste 0 -- -- 21
2017-11-23 00:00:00 18.8 2 Este 10 Noroeste 0 -- -- 26
2017-11-22 23:00:00 20.2 8 Oeste 12 Oeste 0 -- -- 22
2017-11-22 22:00:00 19 2 Noroeste 6 Oeste 0 -- -- 29
2017-11-22 21:00:00 19.3 3 Oeste 9 Norte 0 -- -- 45
2017-11-22 20:00:00 19.5 9 Norte 10 Norte 0 -- -- 48
2017-11-22 19:00:00 19.2 0 Calma 8 Sur 0 -- -- 65
2017-11-22 18:00:00 20.7 5 Sur 18 Sur 0 -- -- 57
2017-11-22 17:00:00 22.8 13 Sur 27 Sur 0 -- -- 41
2017-11-22 16:00:00 24.7 19 Sur 32 Sur 0 -- -- 33
2017-11-22 15:00:00 25.4 26 Sur 45 Sur 0 -- -- 31
2017-11-22 14:00:00 26.6 27 Sur 41 Sur 0 -- -- 24
2017-11-22 13:00:00 26.4 31 Sur 42 Sur 0 -- -- 23
2017-11-22 12:00:00 26.6 31 Sur 40 Sur 0 -- -- 24
2017-11-22 11:00:00 26.3 25 Sur 33 Sur 0 -- -- 22
2017-11-22 10:00:00 25.1 20 Sur 29 Sudoeste 0 -- -- 20
2017-11-22 09:00:00 23.2 19 Sudoeste 28 Sudoeste 0 -- -- 22
2017-11-22 08:00:00 20.8 14 Sudoeste 26 Sur 0 -- -- 24
2017-11-22 07:00:00 20.8 15 Sudoeste 28 Sudoeste 0 -- -- 25
2017-11-22 06:00:00 18.8 8 Sudoeste 13 Sudoeste 0 -- -- 27
2017-11-22 05:00:00 20 3 Sur 18 Sudoeste 0 -- -- 24
2017-11-22 04:00:00 19.6 10 Oeste 15 Oeste 0 -- -- 25
2017-11-22 03:00:00 20.4 9 Sudoeste 13 Sudoeste 0 -- -- 25
2017-11-22 02:00:00 20.7 10 Sudoeste 20 Sudoeste 0 -- -- 24
2017-11-22 01:00:00 20.8 10 Sudoeste 16 Sudoeste 0 -- -- 23
2017-11-22 00:00:00 20.8 4 Sudoeste 19 Sudoeste 0 -- -- 23
2017-11-21 23:00:00 21.7 10 Sudoeste 23 Sudoeste 0 -- -- 21
2017-11-21 22:00:00 21.9 14 Oeste 21 Oeste 0 -- -- 21
2017-11-21 21:00:00 21.9 11 Sudoeste 23 Sur 0 -- -- 21
2017-11-21 20:00:00 22.1 14 Sur 24 Sudoeste 0 -- -- 20
2017-11-21 19:00:00 22.2 17 Sudoeste 28 Sudoeste 0 -- -- 20
2017-11-21 18:00:00 22 15 Sur 24 Sudoeste 0 -- -- 24
2017-11-21 17:00:00 22.2 14 Sur 23 Sur 0 -- -- 34
2017-11-21 16:00:00 23.6 17 Sur 30 Sur 0 -- -- 28
2017-11-21 15:00:00 25.1 18 Sur 32 Sudoeste 0 -- -- 24
2017-11-21 14:00:00 24.5 19 Sur 33 Sur 0 -- -- 28
2017-11-21 13:00:00 24.2 20 Sur 30 Sur 0 -- -- 29
2017-11-21 12:00:00 24.9 17 Sur 31 Sur 0 -- -- 30
2017-11-21 11:00:00 24.1 15 Sur 28 Sur 0 -- -- 31
2017-11-21 10:00:00 23.8 15 Sudoeste 26 Sudoeste 0 -- -- 24
2017-11-21 09:00:00 23.2 11 Sudoeste 24 Oeste 0 -- -- 23
2017-11-21 08:00:00 21.1 14 Oeste 24 Sudoeste 0 -- -- 25
2017-11-21 07:00:00 20.7 11 Sudoeste 24 Sudoeste 0 -- -- 24
2017-11-21 06:00:00 20.5 13 Oeste 21 Sudoeste 0 -- -- 25
2017-11-21 05:00:00 18.8 8 Sudoeste 16 Sudoeste 0 -- -- 31
2017-11-21 04:00:00 18.5 4 Oeste 10 Oeste 0 -- -- 34
2017-11-21 03:00:00 19.4 4 Norte 9 Sudeste 0 -- -- 31
2017-11-21 02:00:00 19.2 3 Noroeste 10 Norte 0 -- -- 23
2017-11-21 01:00:00 19.2 8 Norte 13 Norte 0 -- -- 25
2017-11-21 00:00:00 21.2 3 Sur 8 Nordeste 0 -- -- 21
2017-11-20 23:00:00 19.7 4 Noroeste 7 Noroeste 0 -- -- 22
2017-11-20 22:00:00 21.6 6 Oeste 14 Oeste 0 -- -- 20
2017-11-20 21:00:00 22.4 5 Oeste 18 Oeste 0 -- -- 19
2017-11-20 20:00:00 22.4 10 Oeste 18 Oeste 0 -- -- 19
2017-11-20 19:00:00 22 7 Sudoeste 14 Sudoeste 0 -- -- 21
2017-11-20 18:00:00 23.2 9 Sudoeste 21 Sur 0 -- -- 23
2017-11-20 17:00:00 25 12 Sur 25 Sur 0 -- -- 18
2017-11-20 16:00:00 25.3 13 Sudeste 21 Sur 0 -- -- 30
2017-11-20 15:00:00 25.6 10 Sur 19 Sur 0 -- -- 32
2017-11-20 14:00:00 25.6 12 Sur 22 Sur 0 -- -- 40
2017-11-20 13:00:00 23.9 9 Sur 23 Sudeste 0 -- -- 47
2017-11-20 12:00:00 24.3 8 Sur 18 Sudeste 0 -- -- 48
2017-11-20 11:00:00 23.7 6 Sudeste 18 Este 0 -- -- 44
2017-11-20 10:00:00 22.7 8 Sur 19 Nordeste 0 -- -- 51
2017-11-20 09:00:00 20.1 7 Nordeste 24 Norte 0 -- -- 62
2017-11-20 08:00:00 18.3 5 Norte 26 Nordeste 0 -- -- 63
2017-11-20 07:00:00 18.9 9 Norte 18 Norte 0 -- -- 53
2017-11-20 06:00:00 18.8 10 Norte 21 Norte 0 -- -- 47
2017-11-20 05:00:00 16.7 6 Nordeste 15 Noroeste 0 -- -- 53
2017-11-20 04:00:00 18.3 8 Norte 16 Norte 0 -- -- 46
2017-11-20 03:00:00 17.5 8 Norte 15 Norte 0 -- -- 46
2017-11-20 02:00:00 17.3 9 Norte 25 Norte 0 -- -- 58
2017-11-20 01:00:00 17.1 18 Norte 30 Norte 0 -- -- 78
2017-11-20 00:00:00 17.4 18 Norte 31 Norte 0 -- -- 79
2017-11-19 23:00:00 17.7 25 Norte 37 Norte 0 -- -- 81
2017-11-19 22:00:00 17.5 23 Norte 36 Norte 0 -- -- 81
2017-11-19 21:00:00 17.7 23 Norte 35 Norte 0 -- -- 82
2017-11-19 20:00:00 17.8 24 Norte 39 Norte 0 -- -- 74
2017-11-19 19:00:00 17.6 24 Norte 39 Norte 0 -- -- 78
2017-11-19 18:00:00 18.3 27 Norte 40 Nordeste 0 -- -- 75
2017-11-19 17:00:00 19.5 28 Norte 39 Norte 0 -- -- 71
2017-11-19 16:00:00 21 24 Nordeste 38 Nordeste 0 -- -- 66
2017-11-19 15:00:00 22.1 23 Nordeste 37 Nordeste 0 -- -- 62
2017-11-19 14:00:00 21.7 25 Nordeste 35 Nordeste 0 -- -- 63
2017-11-19 13:00:00 21.6 21 Nordeste 34 Nordeste 0 -- -- 64
2017-11-19 12:00:00 21.9 24 Nordeste 36 Nordeste 0 -- -- 63
2017-11-19 11:00:00 20.2 17 Nordeste 28 Nordeste 0 -- -- 71
2017-11-19 10:00:00 19.1 16 Nordeste 27 Nordeste 0 -- -- 74
2017-11-19 09:00:00 18.1 13 Norte 27 Norte 0 -- -- 79
2017-11-19 08:00:00 17.4 15 Nordeste 28 Nordeste 0 -- -- 79
2017-11-19 07:00:00 16.7 14 Norte 29 Norte 0 -- -- 84
2017-11-19 06:00:00 17 20 Norte 32 Nordeste 0 -- -- 84
2017-11-19 05:00:00 17 18 Norte 32 Nordeste 0 -- -- 84
2017-11-19 04:00:00 17.2 20 Norte 32 Norte 0 -- -- 84
2017-11-19 03:00:00 17.1 19 Norte 32 Norte 0 -- -- 85
2017-11-19 02:00:00 17.2 14 Norte 27 Nordeste 0 -- -- 84
2017-11-19 01:00:00 17.5 18 Nordeste 29 Norte 0 -- -- 85
2017-11-19 00:00:00 17.5 16 Norte 27 Norte 0 -- -- 82
2017-11-18 23:00:00 17.6 17 Norte 31 Norte 0 -- -- 78
2017-11-18 22:00:00 17.5 21 Norte 29 Norte 0 -- -- 74
2017-11-18 21:00:00 17.2 17 Norte 31 Norte 0 -- -- 79
2017-11-18 20:00:00 17.5 22 Norte 33 Nordeste 0 -- -- 81
2017-11-18 19:00:00 17.8 21 Nordeste 31 Norte 0 -- -- 80
2017-11-18 18:00:00 18.4 18 Nordeste 29 Nordeste 0 -- -- 78
2017-11-18 17:00:00 19.8 18 Nordeste 26 Nordeste 0 -- -- 72
2017-11-18 16:00:00 21.7 11 Nordeste 22 Nordeste 0 -- -- 66
2017-11-18 15:00:00 22.4 9 Este 17 Este 0 -- -- 63
2017-11-18 14:00:00 22 10 Nordeste 18 Este 0 -- -- 64
2017-11-18 13:00:00 22 9 Este 21 Este 0 -- -- 63
2017-11-18 12:00:00 21.9 9 Este 18 Este 0 -- -- 65
2017-11-18 11:00:00 21.2 8 Nordeste 15 Nordeste 0 -- -- 67
2017-11-18 10:00:00 18.7 8 Norte 15 Norte 0 -- -- 74
2017-11-18 09:00:00 18.1 8 Nordeste 13 Norte 0 -- -- 78
2017-11-18 08:00:00 17 6 Norte 12 Norte 0 -- -- 80
2017-11-18 07:00:00 17.3 6 Norte 14 Norte 0 -- -- 81
2017-11-18 06:00:00 17.3 9 Norte 15 Norte 0 -- -- 82
2017-11-18 05:00:00 17.4 9 Norte 17 Norte 0 -- -- 82
2017-11-18 04:00:00 17.5 10 Norte 19 Norte 0 -- -- 81
2017-11-18 03:00:00 17.5 12 Norte 19 Norte 0 -- -- 81
2017-11-18 02:00:00 17.6 8 Nordeste 20 Nordeste 0 -- -- 82
2017-11-18 01:00:00 17.7 8 Nordeste 16 Norte 0 -- -- 83
2017-11-18 00:00:00 17.4 9 Norte 20 Norte 0 -- -- 82
2017-11-17 23:00:00 17.5 12 Norte 36 Nordeste 0 -- -- 81
2017-11-17 22:00:00 17.7 22 Nordeste 38 Norte 0 -- -- 77
2017-11-17 21:00:00 17.9 22 Norte 38 Norte 0 -- -- 76
2017-11-17 20:00:00 17.8 19 Norte 29 Nordeste 0 -- -- 78
2017-11-17 19:00:00 17.8 20 Norte 29 Norte 0 -- -- 78
2017-11-17 18:00:00 18.2 18 Nordeste 32 Nordeste 0 -- -- 75
2017-11-17 17:00:00 19.9 20 Nordeste 34 Nordeste 0 -- -- 70
2017-11-17 16:00:00 21.4 18 Nordeste 31 Nordeste 0 -- -- 64
2017-11-17 15:00:00 21.9 19 Nordeste 30 Este 0 -- -- 62
2017-11-17 14:00:00 22.4 17 Nordeste 27 Nordeste 0 -- -- 59
2017-11-17 13:00:00 22.4 14 Nordeste 25 Nordeste 0 -- -- 61
2017-11-17 12:00:00 21.7 12 Nordeste 26 Nordeste 0 -- -- 64
2017-11-17 11:00:00 21.4 13 Nordeste 24 Nordeste 0 -- -- 65
2017-11-17 10:00:00 19.6 14 Norte 27 Norte 0 -- -- 71
2017-11-17 09:00:00 18.2 16 Nordeste 27 Nordeste 0 -- -- 79
2017-11-17 08:00:00 16.3 15 Norte 24 Norte 0 -- -- 85
2017-11-17 07:00:00 16 11 Norte 24 Norte 0 -- -- 85
2017-11-17 06:00:00 16.1 10 Norte 32 Norte 0 -- -- 86
2017-11-17 05:00:00 16.1 15 Norte 21 Norte 0 -- -- 85
2017-11-17 04:00:00 16.4 12 Norte 18 Norte 0 -- -- 82
2017-11-17 03:00:00 16.7 8 Norte 15 Norte 0 -- -- 81
2017-11-17 02:00:00 16.6 12 Norte 18 Norte 0 -- -- 81
2017-11-17 01:00:00 16.7 8 Norte 18 Norte 0 -- -- 79
2017-11-17 00:00:00 17 9 Norte 18 Norte 0 -- -- 79
2017-11-16 23:00:00 16.9 10 Norte 18 Norte 0 -- -- 79
2017-11-16 22:00:00 16.6 12 Norte 19 Norte 0 -- -- 80
2017-11-16 21:00:00 16.6 13 Norte 25 Norte 0 -- -- 80
2017-11-16 20:00:00 16.8 11 Norte 21 Norte 0 -- -- 78
2017-11-16 19:00:00 17.2 12 Norte 26 Nordeste 0 -- -- 77
2017-11-16 18:00:00 17.9 18 Nordeste 29 Norte 0 -- -- 73
2017-11-16 17:00:00 19.6 19 Nordeste 33 Nordeste 0 -- -- 67
2017-11-16 16:00:00 21 20 Nordeste 34 Nordeste 0 -- -- 61
2017-11-16 15:00:00 21.8 21 Nordeste 40 Nordeste 0 -- -- 59
2017-11-16 14:00:00 21.9 24 Nordeste 35 Nordeste 0 -- -- 58
2017-11-16 13:00:00 22.3 22 Nordeste 35 Nordeste 0 -- -- 57
2017-11-16 12:00:00 22.1 20 Nordeste 28 Nordeste 0 -- -- 58
2017-11-16 11:00:00 21.5 18 Nordeste 27 Nordeste 0 -- -- 59
2017-11-16 10:00:00 20 15 Nordeste 26 Nordeste 0 -- -- 65
2017-11-16 09:00:00 18 13 Nordeste 18 Nordeste 0 -- -- 72
2017-11-16 08:00:00 15.3 9 Norte 13 Noroeste 0 -- -- 81
2017-11-16 07:00:00 14.6 8 Noroeste 12 Noroeste 0 -- -- 82
2017-11-16 06:00:00 14.7 9 Noroeste 13 Noroeste 0 -- -- 82
2017-11-16 05:00:00 14.8 10 Noroeste 14 Norte 0 -- -- 81
2017-11-16 04:00:00 15.5 10 Norte 21 Norte 0 -- -- 79
2017-11-16 03:00:00 15.6 13 Norte 20 Norte 0 -- -- 78
2017-11-16 02:00:00 15.9 13 Norte 22 Norte 0 -- -- 77
2017-11-16 01:00:00 16.1 16 Norte 23 Norte 0 -- -- 76
2017-11-16 00:00:00 16.4 17 Norte 28 Norte 0 -- -- 75
2017-11-15 23:00:00 16.5 19 Norte 28 Norte 0 -- -- 75
2017-11-15 22:00:00 16.6 17 Norte 25 Norte 0 -- -- 75
2017-11-15 21:00:00 16.8 13 Norte 25 Nordeste 0 -- -- 72
2017-11-15 20:00:00 17.2 16 Norte 28 Norte 0 -- -- 69
2017-11-15 19:00:00 17.4 20 Norte 31 Nordeste 0 -- -- 71
2017-11-15 18:00:00 18.1 20 Norte 37 Norte 0 -- -- 69
2017-11-15 17:00:00 19.3 26 Norte 41 Nordeste 0 -- -- 65
2017-11-15 16:00:00 20.1 26 Nordeste 42 Nordeste 0 -- -- 62
2017-11-15 15:00:00 20.6 26 Nordeste 43 Nordeste 0 -- -- 62
2017-11-15 14:00:00 21.7 31 Nordeste 51 Nordeste 0 -- -- 59
2017-11-15 13:00:00 22 30 Nordeste 43 Nordeste 0 -- -- 55
2017-11-15 12:00:00 21.5 32 Nordeste 45 Norte 0 -- -- 55
2017-11-15 11:00:00 21.1 26 Nordeste 40 Nordeste 0 -- -- 59
2017-11-15 10:00:00 19.7 20 Norte 36 Norte 0 -- -- 67
2017-11-15 09:00:00 18.5 11 Nordeste 27 Norte 0 -- -- 69
2017-11-15 08:00:00 17.2 13 Noroeste 28 Norte 0 -- -- 69
2017-11-15 07:00:00 16.8 18 Norte 28 Norte 0 -- -- 70
2017-11-15 06:00:00 16.6 12 Norte 26 Norte 0 -- -- 70
2017-11-15 05:00:00 16.7 17 Norte 26 Norte 0 -- -- 70
2017-11-15 04:00:00 16.5 15 Norte 22 Noroeste 0 -- -- 73
2017-11-15 03:00:00 16.9 14 Norte 24 Norte 0 -- -- 70
2017-11-15 02:00:00 16.6 12 Norte 23 Norte 0 -- -- 72
2017-11-15 01:00:00 16.8 15 Norte 26 Norte 0 -- -- 73
2017-11-15 00:00:00 17.2 21 Norte 32 Nordeste 0 -- -- 74
2017-11-14 23:00:00 17.4 21 Norte 38 Norte 0 -- -- 72
2017-11-14 22:00:00 17.3 28 Norte 41 Norte 0 -- -- 71
2017-11-14 21:00:00 17.4 25 Norte 38 Norte 0 -- -- 68
2017-11-14 20:00:00 17.6 22 Norte 39 Norte 0 -- -- 67
2017-11-14 19:00:00 17.7 26 Norte 43 Norte 0 -- -- 70
2017-11-14 18:00:00 18.4 29 Norte 46 Norte 0 -- -- 66
2017-11-14 17:00:00 19.5 31 Nordeste 49 Nordeste 0 -- -- 64
2017-11-14 16:00:00 20.9 27 Nordeste 45 Norte 0 -- -- 61
2017-11-14 15:00:00 21.8 31 Nordeste 47 Nordeste 0 -- -- 57
2017-11-14 14:00:00 22 32 Nordeste 49 Norte 0 -- -- 56
2017-11-14 13:00:00 22 33 Nordeste 50 Nordeste 0 -- -- 59
2017-11-14 12:00:00 21.6 35 Nordeste 50 Norte 0 -- -- 57
2017-11-14 11:00:00 20.8 37 Norte 54 Nordeste 0 -- -- 57
2017-11-14 10:00:00 19.8 31 Norte 51 Norte 0 -- -- 60
2017-11-14 09:00:00 18.3 36 Norte 51 Norte 0 -- -- 65
2017-11-14 08:00:00 16.9 29 Norte 53 Norte 0 -- -- 71
2017-11-14 07:00:00 16.7 26 Norte 44 Norte 0 -- -- 71
2017-11-14 06:00:00 16.9 29 Norte 49 Norte 0 -- -- 72
2017-11-14 05:00:00 17.4 34 Norte 52 Norte 0 -- -- 70
2017-11-14 04:00:00 17.2 33 Norte 47 Norte 0 -- -- 76
2017-11-14 03:00:00 17.8 27 Norte 44 Norte 0 -- -- 70
2017-11-14 02:00:00 17.5 32 Norte 51 Nordeste 0 -- -- 71
2017-11-14 01:00:00 17.6 30 Nordeste 45 Norte 0 -- -- 77
2017-11-14 00:00:00 18.4 28 Norte 53 Norte 0 -- -- 71
2017-11-13 23:00:00 18 25 Norte 43 Nordeste 0 -- -- 76
2017-11-13 22:00:00 18.1 24 Nordeste 47 Norte 0 -- -- 76
2017-11-13 21:00:00 18.2 23 Norte 36 Norte 0 -- -- 71
2017-11-13 20:00:00 18 22 Nordeste 35 Nordeste 0 -- -- 76
2017-11-13 19:00:00 18.1 26 Nordeste 37 Nordeste 0 -- -- 76
2017-11-13 18:00:00 18.9 23 Nordeste 33 Nordeste 0 -- -- 74
2017-11-13 17:00:00 20.2 26 Nordeste 41 Nordeste 0 -- -- 71
2017-11-13 16:00:00 21.5 28 Nordeste 39 Nordeste 0 -- -- 67
2017-11-13 15:00:00 21.9 28 Nordeste 44 Nordeste 0 -- -- 65
2017-11-13 14:00:00 22.9 25 Nordeste 44 Norte 0 -- -- 62
2017-11-13 13:00:00 22.4 32 Nordeste 44 Nordeste 0 -- -- 64
2017-11-13 12:00:00 22.4 28 Nordeste 39 Nordeste 0 -- -- 64
2017-11-13 11:00:00 22 24 Nordeste 39 Nordeste 0 -- -- 66
2017-11-13 10:00:00 20.9 18 Nordeste 38 Norte 0 -- -- 69
2017-11-13 09:00:00 18.9 28 Norte 44 Norte 0 -- -- 75
2017-11-13 08:00:00 17.8 31 Norte 43 Norte 0 -- -- 76
2017-11-13 07:00:00 18.2 26 Norte 37 Norte 0 -- -- 57
2017-11-13 06:00:00 17.9 22 Norte 39 Norte 0 -- -- 46
2017-11-13 05:00:00 18 22 Norte 33 Norte 0 -- -- 53
2017-11-13 04:00:00 16.9 10 Norte 16 Nordeste 0 -- -- 62
2017-11-13 03:00:00 18.4 3 Noroeste 29 Norte 0 -- -- 58
2017-11-13 02:00:00 18.7 21 Norte 33 Norte 0 -- -- 54
2017-11-13 01:00:00 18.2 18 Nordeste 27 Nordeste 0 -- -- 67
2017-11-13 00:00:00 18.6 17 Norte 26 Norte 0 -- -- 69
2017-11-12 23:00:00 18.8 12 Norte 26 Norte 0 -- -- 75
2017-11-12 22:00:00 19.1 15 Norte 23 Nordeste 0 -- -- 72
2017-11-12 21:00:00 19.3 10 Norte 19 Norte 0 -- -- 68
2017-11-12 20:00:00 19.4 11 Norte 18 Nordeste 0 -- -- 65
2017-11-12 19:00:00 20.1 9 Nordeste 17 Nordeste 0 -- -- 61
2017-11-12 18:00:00 21.8 3 Sur 10 Sudeste 0 -- -- 56
2017-11-12 17:00:00 23.5 5 Sudeste 17 Sudeste 0 -- -- 47
2017-11-12 16:00:00 24.9 10 Sur 19 Sur 0 -- -- 42
2017-11-12 15:00:00 26.5 9 Sur 22 Sur 0 -- -- 40
2017-11-12 14:00:00 26.7 7 Este 17 Sur 0 -- -- 42
2017-11-12 13:00:00 25.9 7 Este 15 Nordeste 0 -- -- 45
2017-11-12 12:00:00 25.2 7 Este 15 Nordeste 0 -- -- 49
2017-11-12 11:00:00 25.5 8 Este 17 Este 0 -- -- 44
2017-11-12 10:00:00 23.3 8 Nordeste 15 Nordeste 0 -- -- 50
2017-11-12 09:00:00 22.1 11 Nordeste 15 Nordeste 0 -- -- 54
2017-11-12 08:00:00 20.7 4 Nordeste 14 Norte 0 -- -- 43
2017-11-12 07:00:00 20.8 9 Norte 13 Norte 0 -- -- 42
2017-11-12 06:00:00 21.4 5 Nordeste 13 Norte 0 -- -- 32
2017-11-12 05:00:00 21.9 8 Norte 20 Norte 0 -- -- 31
2017-11-12 04:00:00 19.9 14 Norte 23 Norte 0 -- -- 51
2017-11-12 03:00:00 19.2 14 Norte 24 Nordeste 0 -- -- 58
2017-11-12 02:00:00 19.2 12 Norte 24 Nordeste 0 -- -- 63
2017-11-12 01:00:00 18.7 15 Nordeste 21 Nordeste 0 -- -- 84
2017-11-12 00:00:00 19.3 13 Nordeste 17 Nordeste 0 -- -- 80
2017-11-11 23:00:00 23.9 9 Norte 14 Noroeste 0 -- -- 44
2017-11-11 22:00:00 25 11 Norte 14 Noroeste 0 -- -- 31
2017-11-11 21:00:00 23.3 8 Nordeste 14 Noroeste 0 -- -- 37
2017-11-11 20:00:00 24.5 11 Norte 13 Norte 0 -- -- 23
2017-11-11 19:00:00 22.7 8 Norte 9 Norte 0 -- -- 25
2017-11-11 18:00:00 23.9 5 Nordeste 9 Nordeste 0 -- -- 51
2017-11-11 17:00:00 26.4 9 Nordeste 14 Nordeste 0 -- -- 38
2017-11-11 16:00:00 26.8 13 Nordeste 19 Nordeste 0 -- -- 36
2017-11-11 15:00:00 27.6 13 Nordeste 25 Este 0 -- -- 39
2017-11-11 14:00:00 28 12 Nordeste 25 Este 0 -- -- 30
2017-11-11 13:00:00 25.2 17 Nordeste 33 Nordeste 0 -- -- 61
2017-11-11 12:00:00 24.5 23 Nordeste 38 Nordeste 0 -- -- 61
2017-11-11 11:00:00 23.9 24 Nordeste 39 Nordeste 0 -- -- 61
2017-11-11 10:00:00 25.4 22 Nordeste 29 Nordeste 0 -- -- 43
2017-11-11 09:00:00 22.5 14 Nordeste 25 Nordeste 0 -- -- 46
2017-11-11 08:00:00 19 18 Nordeste 30 Nordeste 0 -- -- 62
2017-11-11 07:00:00 20.1 15 Nordeste 30 Nordeste 0 -- -- 44
2017-11-11 06:00:00 18.7 20 Nordeste 36 Nordeste 0 -- -- 63
2017-11-11 05:00:00 19.3 24 Nordeste 37 Nordeste 0 -- -- 57
2017-11-11 04:00:00 19.4 23 Nordeste 34 Nordeste 0 -- -- 50
2017-11-11 03:00:00 19.7 24 Nordeste 38 Nordeste 0 -- -- 47
2017-11-11 02:00:00 19.5 18 Nordeste 28 Nordeste 0 -- -- 49
2017-11-11 01:00:00 19.4 13 Nordeste 25 Nordeste 0 -- -- 49
2017-11-11 00:00:00 19.3 14 Nordeste 22 Norte 0 -- -- 54
2017-11-10 23:00:00 19.1 16 Nordeste 31 Nordeste 0 -- -- 57
2017-11-10 22:00:00 19 21 Nordeste 36 Nordeste 0 -- -- 70
2017-11-10 21:00:00 19.5 22 Norte 35 Nordeste 0 -- -- 65
2017-11-10 20:00:00 20.1 17 Nordeste 28 Nordeste 0 -- -- 60
2017-11-10 19:00:00 21 19 Nordeste 33 Norte 0 -- -- 56
2017-11-10 18:00:00 21.5 18 Nordeste 36 Nordeste 0 -- -- 61
2017-11-10 17:00:00 22.6 23 Nordeste 34 Nordeste 0 -- -- 61
2017-11-10 16:00:00 25.3 19 Nordeste 37 Nordeste 0 -- -- 52
2017-11-10 15:00:00 26 19 Norte 34 Nordeste 0 -- -- 46
2017-11-10 14:00:00 25.9 20 Nordeste 35 Nordeste 0 -- -- 49
2017-11-10 13:00:00 25 26 Nordeste 39 Nordeste 0 -- -- 58
2017-11-10 12:00:00 24.6 26 Nordeste 40 Nordeste 0 -- -- 59
2017-11-10 11:00:00 23 30 Nordeste 41 Nordeste 0 -- -- 65
2017-11-10 10:00:00 23 24 Norte 39 Nordeste 0 -- -- 56
2017-11-10 09:00:00 21.3 18 Nordeste 32 Nordeste 0 -- -- 64
2017-11-10 08:00:00 21.3 20 Norte 28 Norte 0 -- -- 43
2017-11-10 07:00:00 18.8 15 Nordeste 31 Norte 0 -- -- 68
2017-11-10 06:00:00 18.2 20 Nordeste 36 Norte 0 -- -- 79
2017-11-10 05:00:00 18.3 27 Norte 49 Norte 0 -- -- 79
2017-11-10 04:00:00 18.7 30 Norte 46 Norte 0 -- -- 76
2017-11-10 03:00:00 18.6 26 Norte 44 Norte 0 -- -- 77
2017-11-10 02:00:00 19.7 16 Norte 34 Norte 0 -- -- 57
2017-11-10 01:00:00 20.1 21 Norte 35 Norte 0 -- -- 64
2017-11-10 00:00:00 20.7 13 Norte 19 Norte 0 -- -- 54
2017-11-09 23:00:00 20.9 12 Norte 18 Norte 0 -- -- 53
2017-11-09 22:00:00 20.4 9 Norte 15 Norte 0 -- -- 55
2017-11-09 21:00:00 19.7 7 Nordeste 19 Noroeste 0 -- -- 56
2017-11-09 20:00:00 19.4 10 Norte 26 Norte 0 -- -- 64
2017-11-09 19:00:00 19.6 12 Nordeste 21 Nordeste 0 -- -- 79
2017-11-09 18:00:00 20.4 13 Nordeste 26 Nordeste 0 -- -- 78
2017-11-09 17:00:00 22.1 18 Nordeste 28 Nordeste 0 -- -- 72
2017-11-09 16:00:00 23.8 15 Nordeste 24 Este 0 -- -- 64
2017-11-09 15:00:00 23.7 15 Este 26 Nordeste 0 -- -- 65
2017-11-09 14:00:00 24.1 13 Este 22 Nordeste 0 -- -- 65
2017-11-09 13:00:00 23.9 14 Nordeste 26 Este 0 -- -- 67
2017-11-09 12:00:00 24.5 15 Nordeste 28 Este 0 -- -- 66
2017-11-09 11:00:00 23.5 16 Nordeste 26 Nordeste 0 -- -- 70
2017-11-09 10:00:00 22.9 18 Nordeste 26 Nordeste 0 -- -- 62
2017-11-09 09:00:00 20.6 12 Nordeste 20 Nordeste 0 -- -- 74
2017-11-09 08:00:00 17.6 6 Noroeste 16 Norte 0 -- -- 75
2017-11-09 07:00:00 16.9 8 Norte 18 Norte 0 -- -- 80
2017-11-09 06:00:00 16.6 3 Noroeste 6 Noroeste 0 -- -- 82
2017-11-09 05:00:00 16.5 4 Norte 9 Norte 0 -- -- 77
2017-11-09 04:00:00 17 3 Noroeste 5 Noroeste 0 -- -- 84
2017-11-09 03:00:00 17.5 4 Oeste 7 Noroeste 0 -- -- 83
2017-11-09 02:00:00 17.8 4 Oeste 9 Oeste 0 -- -- 80
2017-11-09 01:00:00 17.8 2 Nordeste 4 Nordeste 0 -- -- 80
2017-11-09 00:00:00 18.1 3 Norte 5 Norte 0 -- -- 77
2017-11-08 23:00:00 18.4 0 Calma 6 Noroeste 0 -- -- 77
2017-11-08 22:00:00 18.6 3 Oeste 6 Norte 0 -- -- 78
2017-11-08 21:00:00 19.1 0 Calma 9 Sudeste 0 -- -- 79
2017-11-08 20:00:00 19.5 4 Sur 6 Sudoeste 0 -- -- 71
2017-11-08 19:00:00 20.5 5 Sur 8 Sudoeste 0 -- -- 69
2017-11-08 18:00:00 21.5 4 Sur 14 Sur 0 -- -- 65
2017-11-08 17:00:00 22.9 7 Sudeste 23 Sur 0 -- -- 64
2017-11-08 16:00:00 24.6 12 Sudeste 23 Sur 0 -- -- 59
2017-11-08 15:00:00 25.3 11 Sur 27 Sudeste 0 -- -- 53
2017-11-08 14:00:00 25.8 13 Sudeste 28 Sur 0 -- -- 54
2017-11-08 13:00:00 26 11 Sur 28 Sudeste 0 -- -- 54
2017-11-08 12:00:00 25.7 10 Este 18 Este 0 -- -- 56
2017-11-08 11:00:00 25.4 8 Sudeste 29 Este 0 -- -- 51
2017-11-08 10:00:00 25.2 10 Este 16 Nordeste 0 -- -- 49
2017-11-08 09:00:00 23.3 3 Este 14 Nordeste 0 -- -- 52
2017-11-08 08:00:00 20.5 5 Norte 15 Norte 0 -- -- 53
2017-11-08 07:00:00 20.4 8 Norte 20 Norte 0 -- -- 52
2017-11-08 06:00:00 19.9 9 Noroeste 18 Norte 0 -- -- 54
2017-11-08 05:00:00 20.1 9 Norte 18 Nordeste 0 -- -- 47
2017-11-08 04:00:00 19.4 11 Norte 15 Norte 0 -- -- 50
2017-11-08 03:00:00 18 4 Sudoeste 12 Oeste 0 -- -- 78
2017-11-08 02:00:00 17.7 5 Oeste 10 Noroeste 0 -- -- 85
2017-11-08 01:00:00 17.7 5 Noroeste 10 Noroeste 0 -- -- 84
2017-11-08 00:00:00 18.9 4 Sur 22 Noroeste 0 -- -- 79
2017-11-07 23:00:00 19 3 Sudoeste 18 Norte 0 -- -- 79
2017-11-07 22:00:00 20.3 12 Norte 42 Norte 0 -- -- 69
2017-11-07 21:00:00 20.6 22 Norte 45 Norte 0 -- -- 64
2017-11-07 20:00:00 20.3 22 Norte 40 Norte 0 -- -- 70
2017-11-07 19:00:00 20.2 24 Norte 48 Norte 0 -- -- 72
2017-11-07 18:00:00 21.1 33 Norte 51 Norte 0 -- -- 68
2017-11-07 17:00:00 22.1 33 Norte 50 Norte 0 -- -- 65
2017-11-07 16:00:00 23.4 32 Norte 51 Norte 0 -- -- 61
2017-11-07 15:00:00 24.5 28 Norte 53 Norte 0 -- -- 57
2017-11-07 14:00:00 24.2 36 Norte 59 Norte 0 -- -- 59
2017-11-07 13:00:00 23.8 36 Norte 55 Norte 0 -- -- 59
2017-11-07 12:00:00 24.3 32 Norte 51 Norte 0 -- -- 59
2017-11-07 11:00:00 22.6 39 Norte 54 Norte 0 -- -- 64
2017-11-07 10:00:00 21.4 39 Norte 53 Norte 0 -- -- 65
2017-11-07 09:00:00 20 32 Norte 54 Norte 0 -- -- 73
2017-11-07 08:00:00 19 31 Norte 48 Nordeste 0 -- -- 78
2017-11-07 07:00:00 18.7 30 Norte 45 Norte 0 -- -- 74
2017-11-07 06:00:00 18.6 27 Norte 50 Norte 0 -- -- 74
2017-11-07 05:00:00 18.6 31 Norte 50 Norte 0 -- -- 74
2017-11-07 04:00:00 18.6 24 Norte 43 Norte 0 -- -- 73
2017-11-07 03:00:00 18.5 22 Norte 44 Norte 0 -- -- 74
2017-11-07 02:00:00 18.3 25 Norte 46 Norte 0 -- -- 77
2017-11-07 01:00:00 18.3 28 Norte 48 Norte 0 -- -- 76
2017-11-07 00:00:00 18.4 27 Norte 44 Norte 0 -- -- 76
2017-11-06 23:00:00 18.5 26 Norte 49 Norte 0 -- -- 75
2017-11-06 22:00:00 18.4 27 Norte 44 Norte 0 -- -- 78
2017-11-06 21:00:00 18.5 27 Norte 45 Norte 0 -- -- 78
2017-11-06 20:00:00 18.6 28 Norte 45 Nordeste 0 -- -- 78
2017-11-06 19:00:00 18.9 28 Norte 46 Norte 0 -- -- 77
2017-11-06 18:00:00 19.5 27 Norte 42 Norte 0 -- -- 73
2017-11-06 17:00:00 20.8 30 Norte 45 Norte 0 -- -- 68
2017-11-06 16:00:00 21.9 31 Norte 54 Norte 0 -- -- 65
2017-11-06 15:00:00 22.4 33 Norte 51 Nordeste 0 -- -- 63
2017-11-06 14:00:00 22.6 35 Norte 50 Norte 0 -- -- 63
2017-11-06 13:00:00 22.4 33 Norte 48 Nordeste 0 -- -- 63
2017-11-06 12:00:00 22.5 32 Norte 48 Norte 0 -- -- 58
2017-11-06 11:00:00 20.7 32 Norte 48 Norte 0 -- -- 71
2017-11-06 10:00:00 18.9 27 Norte 40 Norte 0 -- -- 80
2017-11-06 09:00:00 18.1 26 Norte 41 Norte 0 -- -- 83
2017-11-06 08:00:00 17.9 22 Norte 37 Norte 0.2 -- -- 87
2017-11-06 07:00:00 18.1 24 Norte 41 Norte 0 -- -- 83
2017-11-06 06:00:00 17.9 28 Norte 43 Norte 0 -- -- 81
2017-11-06 05:00:00 17.8 28 Norte 43 Norte 0 -- -- 83
2017-11-06 04:00:00 18.1 26 Norte 48 Norte 0 -- -- 68
2017-11-06 03:00:00 17.9 25 Norte 41 Norte 0 -- -- 74
2017-11-06 02:00:00 18.2 24 Norte 39 Norte 0 -- -- 76
2017-11-06 01:00:00 18.3 23 Norte 39 Nordeste 0 -- -- 76
2017-11-06 00:00:00 18.4 26 Norte 49 Norte 0 -- -- 78
2017-11-05 23:00:00 18.5 24 Norte 43 Norte 0 -- -- 75
2017-11-05 22:00:00 18.6 24 Norte 41 Norte 0 -- -- 78
2017-11-05 21:00:00 18.8 26 Norte 46 Norte 0 -- -- 76
2017-11-05 20:00:00 18.9 31 Norte 48 Norte 0 -- -- 72
2017-11-05 19:00:00 19 31 Norte 46 Norte 0 -- -- 72
2017-11-05 18:00:00 19.5 24 Norte 47 Norte 0 -- -- 72
2017-11-05 17:00:00 20.5 30 Norte 47 Norte 0 -- -- 68
2017-11-05 16:00:00 20.1 27 Norte 45 Norte 0.2 -- -- 76
2017-11-05 15:00:00 21.5 27 Norte 48 Norte 0 -- -- 66
2017-11-05 14:00:00 23.1 35 Nordeste 49 Nordeste 0 -- -- 54
2017-11-05 13:00:00 23 29 Norte 48 Nordeste 0 -- -- 58
2017-11-05 12:00:00 22.3 27 Norte 47 Norte 0 -- -- 62
2017-11-05 11:00:00 21.2 30 Norte 49 Nordeste 0 -- -- 66
2017-11-05 10:00:00 20.7 26 Nordeste 42 Nordeste 0 -- -- 67
2017-11-05 09:00:00 19.4 23 Norte 37 Norte 0 -- -- 75
2017-11-05 08:00:00 18.3 20 Norte 35 Norte 0 -- -- 78
2017-11-05 07:00:00 17.9 23 Norte 37 Norte 0 -- -- 77
2017-11-05 06:00:00 17.9 24 Norte 42 Norte 0 -- -- 80
2017-11-05 05:00:00 17.9 24 Norte 35 Norte 0 -- -- 77
2017-11-05 04:00:00 17.8 23 Norte 37 Norte 0.2 -- -- 80
2017-11-05 03:00:00 18.3 24 Norte 40 Norte 0 -- -- 77
2017-11-05 02:00:00 18.4 26 Norte 47 Norte 0 -- -- 76
2017-11-05 01:00:00 18.2 25 Norte 39 Norte 0 -- -- 76
2017-11-05 00:00:00 18.2 23 Norte 36 Norte 0 -- -- 77
2017-11-04 23:00:00 18.2 24 Norte 39 Norte 0 -- -- 76
2017-11-04 22:00:00 18.4 26 Norte 39 Norte 0 -- -- 76
2017-11-04 21:00:00 18.5 23 Norte 37 Norte 0 -- -- 78
2017-11-04 20:00:00 18.5 26 Norte 42 Norte 0 -- -- 77
2017-11-04 19:00:00 18.7 27 Norte 40 Norte 0 -- -- 77
2017-11-04 18:00:00 19.2 29 Norte 42 Norte 0 -- -- 75
2017-11-04 17:00:00 20.5 28 Norte 43 Norte 0 -- -- 72
2017-11-04 16:00:00 20.8 30 Norte 44 Norte 0 -- -- 71
2017-11-04 15:00:00 21.7 26 Norte 41 Nordeste 0 -- -- 66
2017-11-04 14:00:00 22.8 24 Nordeste 40 Nordeste 0 -- -- 65
2017-11-04 13:00:00 22.1 25 Norte 39 Norte 0 -- -- 66
2017-11-04 12:00:00 20.9 22 Norte 37 Norte 0 -- -- 78
2017-11-04 11:00:00 20.4 17 Norte 32 Norte 0 -- -- 75
2017-11-04 10:00:00 20.8 25 Norte 36 Norte 0 -- -- 69
2017-11-04 09:00:00 19.4 24 Norte 34 Norte 0 -- -- 74
2017-11-04 08:00:00 18.2 22 Norte 33 Norte 0 -- -- 80
2017-11-04 07:00:00 18.2 19 Norte 29 Norte 0 -- -- 76
2017-11-04 06:00:00 18.1 21 Norte 27 Norte 0 -- -- 79
2017-11-04 05:00:00 18.2 20 Norte 33 Norte 0 -- -- 81
2017-11-04 04:00:00 18.2 19 Norte 36 Norte 0 -- -- 80
2017-11-04 03:00:00 18.7 21 Norte 31 Norte 0 -- -- 76
2017-11-04 02:00:00 18.7 17 Norte 26 Norte 0 -- -- 73
2017-11-04 01:00:00 18.7 14 Norte 23 Norte 0 -- -- 68
2017-11-04 00:00:00 18.9 15 Norte 27 Norte 0 -- -- 68
2017-11-03 23:00:00 19.1 17 Norte 25 Nordeste 0 -- -- 69
2017-11-03 22:00:00 19.4 11 Norte 24 Norte 0 -- -- 69
2017-11-03 21:00:00 18.8 4 Noroeste 14 Noroeste 0 -- -- 82
2017-11-03 20:00:00 19.4 0 Calma 7 Sur 0 -- -- 81
2017-11-03 19:00:00 19.9 5 Sur 11 Sudoeste 0 -- -- 80
2017-11-03 18:00:00 20.4 8 Oeste 15 Sudoeste 0 -- -- 78
2017-11-03 17:00:00 21.1 6 Nordeste 18 Nordeste 0 -- -- 72
2017-11-03 16:00:00 21.7 10 Norte 19 Nordeste 0 -- -- 65
2017-11-03 15:00:00 21.8 13 Norte 21 Norte 0 -- -- 67
2017-11-03 14:00:00 21.1 12 Norte 23 Este 0 -- -- 69
2017-11-03 13:00:00 21.3 14 Nordeste 23 Nordeste 0 -- -- 68
2017-11-03 12:00:00 20.9 10 Nordeste 25 Este 0 -- -- 72
2017-11-03 11:00:00 21.7 11 Sudeste 28 Sudeste 0 -- -- 68
2017-11-03 10:00:00 21.5 9 Este 18 Nordeste 0 -- -- 69
2017-11-03 09:00:00 19.5 4 Sur 12 Oeste 0 -- -- 70
2017-11-03 08:00:00 17 5 Oeste 9 Noroeste 0 -- -- 77
2017-11-03 07:00:00 16.5 6 Oeste 10 Noroeste 0 -- -- 76
2017-11-03 06:00:00 16.6 0 Calma 5 Noroeste 0 -- -- 77
2017-11-03 05:00:00 17 3 Noroeste 9 Sudoeste 0 -- -- 76
2017-11-03 04:00:00 17.3 4 Oeste 9 Noroeste 0 -- -- 75
2017-11-03 03:00:00 17 4 Noroeste 8 Norte 0 -- -- 74
2017-11-03 02:00:00 17.1 3 Noroeste 8 Noroeste 0 -- -- 73
2017-11-03 01:00:00 17.3 7 Noroeste 10 Norte 0 -- -- 68
2017-11-03 00:00:00 17.4 4 Nordeste 13 Norte 0 -- -- 71
2017-11-02 23:00:00 18.7 13 Norte 21 Norte 0 -- -- 63
2017-11-02 22:00:00 18.8 13 Norte 23 Norte 0 -- -- 62
2017-11-02 21:00:00 19.1 16 Norte 27 Norte 0 -- -- 60
2017-11-02 20:00:00 19 17 Norte 25 Norte 0 -- -- 61
2017-11-02 19:00:00 19.4 16 Norte 29 Norte 0 -- -- 61
2017-11-02 18:00:00 20.2 16 Norte 27 Nordeste 0 -- -- 61
2017-11-02 17:00:00 21.2 18 Nordeste 29 Nordeste 0 -- -- 60
2017-11-02 16:00:00 21.7 19 Nordeste 32 Nordeste 0 -- -- 62
2017-11-02 15:00:00 23.8 19 Nordeste 33 Nordeste 0 -- -- 56
2017-11-02 14:00:00 24.3 17 Nordeste 33 Nordeste 0 -- -- 53
2017-11-02 13:00:00 24.1 20 Nordeste 35 Nordeste 0 -- -- 54
2017-11-02 12:00:00 23.7 19 Nordeste 31 Nordeste 0 -- -- 55
2017-11-02 11:00:00 23.4 18 Nordeste 32 Nordeste 0 -- -- 54
2017-11-02 10:00:00 21.5 21 Nordeste 35 Norte 0 -- -- 59
2017-11-02 09:00:00 19.5 21 Norte 32 Norte 0 -- -- 66
2017-11-02 08:00:00 17.6 13 Norte 21 Norte 0 -- -- 72
2017-11-02 07:00:00 17.3 12 Norte 24 Norte 0 -- -- 74
2017-11-02 06:00:00 16.8 11 Norte 21 Noroeste 0 -- -- 80
2017-11-02 05:00:00 16.3 8 Norte 17 Norte 0 -- -- 76
2017-11-02 04:00:00 15.6 7 Norte 10 Norte 0 -- -- 83
2017-11-02 03:00:00 16.6 7 Norte 27 Norte 0 -- -- 78
2017-11-02 02:00:00 17.5 17 Norte 26 Norte 0 -- -- 73
2017-11-02 01:00:00 16.5 8 Norte 12 Noroeste 0 -- -- 79
2017-11-02 00:00:00 17.2 0 Calma 16 Norte 0 -- -- 79
2017-11-01 23:00:00 18.4 15 Norte 36 Norte 0 -- -- 71
2017-11-01 22:00:00 18.5 22 Norte 41 Norte 0 -- -- 74
2017-11-01 21:00:00 18.5 25 Norte 37 Norte 0 -- -- 76
2017-11-01 20:00:00 18.7 22 Norte 35 Norte 0 -- -- 77
2017-11-01 19:00:00 19.1 21 Norte 30 Nordeste 0 -- -- 77
2017-11-01 18:00:00 20.3 21 Nordeste 37 Nordeste 0 -- -- 72
2017-11-01 17:00:00 22.1 21 Nordeste 37 Nordeste 0 -- -- 66
2017-11-01 16:00:00 23.4 24 Nordeste 38 Nordeste 0 -- -- 61
2017-11-01 15:00:00 24.2 23 Nordeste 35 Nordeste 0 -- -- 59
2017-11-01 14:00:00 25 22 Nordeste 37 Nordeste -- -- -- 57
2017-11-01 13:00:00 24.4 22 Nordeste 38 Nordeste 0 -- -- 57
2017-11-01 12:00:00 23.8 25 Nordeste 39 Nordeste 0 -- -- 58
2017-11-01 11:00:00 22.7 28 Nordeste 42 Norte 0 -- -- 61
2017-11-01 10:00:00 21.6 22 Norte 42 Norte 0 -- -- 63
2017-11-01 09:00:00 20.1 29 Norte 39 Norte 0 -- -- 69
2017-11-01 08:00:00 17.9 24 Norte 36 Norte 0 -- -- 76
2017-11-01 07:00:00 17.1 22 Norte 37 Nordeste 0 -- -- 78
2017-11-01 06:00:00 16.9 24 Nordeste 49 Norte 0 -- -- 80
2017-11-01 05:00:00 17.4 36 Norte 47 Norte 0 -- -- 81
2017-11-01 04:00:00 17.5 32 Norte 46 Norte 0 -- -- 82
2017-11-01 03:00:00 17.5 24 Norte 38 Norte 0 -- -- 83
2017-11-01 02:00:00 17.6 20 Nordeste 35 Norte 0 -- -- 83
2017-11-01 01:00:00 18.1 20 Nordeste 35 Norte 0 -- -- 78
2017-11-01 00:00:00 18.3 26 Norte 40 Nordeste 0 -- -- 79
2017-10-31 23:00:00 18.7 28 Norte 40 Norte 0 -- -- 74
2017-10-31 22:00:00 18.4 18 Norte 29 Norte 0 -- -- 81
2017-10-31 21:00:00 18.6 13 Nordeste 23 Norte 0 -- -- 81
2017-10-31 20:00:00 18.9 15 Nordeste 23 Norte 0 -- -- 82
2017-10-31 19:00:00 19.5 12 Nordeste 21 Nordeste 0 -- -- 80
2017-10-31 18:00:00 20.9 14 Nordeste 28 Nordeste 0 -- -- 74
2017-10-31 17:00:00 23.1 16 Nordeste 28 Nordeste 0 -- -- 66
2017-10-31 16:00:00 25.1 19 Nordeste 28 Nordeste 0 -- -- 58
2017-10-31 15:00:00 25.9 18 Nordeste 31 Nordeste 0 -- -- 55
2017-10-31 14:00:00 25.8 20 Nordeste 31 Nordeste 0 -- -- 54
2017-10-31 13:00:00 25.2 21 Nordeste 33 Nordeste 0 -- -- 55
2017-10-31 12:00:00 24.7 21 Nordeste 37 Nordeste 0 -- -- 58
2017-10-31 11:00:00 23.6 24 Nordeste 37 Nordeste 0 -- -- 62
2017-10-31 10:00:00 22.2 26 Nordeste 39 Nordeste 0 -- -- 64
2017-10-31 09:00:00 20.4 23 Nordeste 35 Nordeste 0 -- -- 69
2017-10-31 08:00:00 18.2 16 Nordeste 24 Nordeste 0 -- -- 71
2017-10-31 07:00:00 16.7 9 Norte 12 Norte 0 -- -- 57
2017-10-31 06:00:00 17 5 Norte 9 Noroeste 0 -- -- 43
2017-10-31 05:00:00 18.6 7 Norte 16 Norte 0 -- -- 42
2017-10-31 04:00:00 20 12 Norte 19 Norte 0 -- -- 31
2017-10-31 03:00:00 19.3 14 Norte 19 Nordeste 0 -- -- 34
2017-10-31 02:00:00 18.1 7 Norte 12 Norte 0 -- -- 42
2017-10-31 01:00:00 18.4 6 Norte 10 Norte 0 -- -- 38
2017-10-31 00:00:00 19.5 4 Noroeste 14 Norte 0 -- -- 36
2017-10-30 23:00:00 19.7 14 Nordeste 18 Nordeste 0 -- -- 33
2017-10-30 22:00:00 19.9 14 Nordeste 19 Nordeste 0 -- -- 37
2017-10-30 21:00:00 19 12 Nordeste 15 Nordeste 0 -- -- 68
2017-10-30 20:00:00 20.4 10 Norte 18 Nordeste 0 -- -- 67
2017-10-30 19:00:00 20.9 9 Nordeste 16 Nordeste 0 -- -- 69
2017-10-30 18:00:00 23 10 Nordeste 19 Nordeste -- -- -- 65
2017-10-30 17:00:00 25.3 12 Nordeste 26 Nordeste 0 -- -- 59
2017-10-30 16:00:00 26.5 19 Nordeste 28 Nordeste 0 -- -- 56
2017-10-30 15:00:00 27.5 19 Nordeste 30 Nordeste 0 -- -- 51
2017-10-30 14:00:00 27.7 21 Nordeste 32 Nordeste 0 -- -- 51
2017-10-30 13:00:00 26.7 23 Nordeste 36 Nordeste 0 -- -- 54
2017-10-30 12:00:00 26.3 24 Nordeste 37 Nordeste 0 -- -- 54
2017-10-30 11:00:00 24.9 24 Nordeste 35 Nordeste 0 -- -- 59
2017-10-30 10:00:00 24.4 22 Nordeste 30 Nordeste 0 -- -- 57
2017-10-30 09:00:00 22.8 17 Nordeste 22 Nordeste 0 -- -- 45
2017-10-30 08:00:00 23.9 16 Norte 23 Norte 0 -- -- 22
2017-10-30 07:00:00 22 17 Norte 26 Norte 0 -- -- 21
2017-10-30 06:00:00 21.8 17 Norte 27 Norte 0 -- -- 21
2017-10-30 05:00:00 16.4 11 Nordeste 15 Nordeste 0 -- -- 58
2017-10-30 04:00:00 16.2 10 Nordeste 17 Nordeste 0 -- -- 68
2017-10-30 03:00:00 16 10 Norte 13 Nordeste 0 -- -- 75
2017-10-30 02:00:00 16.4 5 Este 8 Este 0 -- -- 78
2017-10-30 01:00:00 17.2 3 Nordeste 7 Norte 0 -- -- 73
2017-10-30 00:00:00 18.5 6 Norte 17 Norte 0 -- -- 73
2017-10-29 23:00:00 18.7 14 Norte 22 Nordeste 0 -- -- 66
2017-10-29 22:00:00 18.4 6 Norte 10 Nordeste 0 -- -- 74
2017-10-29 21:00:00 19.2 3 Nordeste 9 Oeste 0 -- -- 77
2017-10-29 20:00:00 19.8 5 Nordeste 14 Nordeste 0 -- -- 77
2017-10-29 19:00:00 21.1 8 Nordeste 18 Nordeste 0 -- -- 75
2017-10-29 18:00:00 23 11 Nordeste 31 Nordeste 0 -- -- 69
2017-10-29 17:00:00 24.9 17 Nordeste 29 Nordeste 0 -- -- 64
2017-10-29 16:00:00 26.4 21 Nordeste 31 Nordeste 0 -- -- 60
2017-10-29 15:00:00 27.3 21 Nordeste 32 Nordeste 0 -- -- 57
2017-10-29 14:00:00 27.4 21 Nordeste 44 Nordeste 0 -- -- 57
2017-10-29 13:00:00 28.5 20 Nordeste 31 Nordeste 0 -- -- 52
2017-10-29 12:00:00 29.3 19 Nordeste 31 Nordeste 0 -- -- 44
2017-10-29 11:00:00 30 17 Nordeste 27 Nordeste 0 -- -- 32
2017-10-29 10:00:00 28.2 16 Nordeste 26 Nordeste 0 -- -- 26
2017-10-29 09:00:00 26.6 18 Nordeste 28 Nordeste 0 -- -- 20
2017-10-29 08:00:00 23.6 15 Nordeste 30 Norte 0 -- -- 23
2017-10-29 07:00:00 24.4 19 Norte 32 Norte 0 -- -- 23
2017-10-29 06:00:00 22.6 13 Nordeste 30 Norte 0 -- -- 26
2017-10-29 05:00:00 24 16 Norte 31 Norte 0 -- -- 24
2017-10-29 04:00:00 24.2 15 Norte 31 Norte 0 -- -- 20
2017-10-29 03:00:00 24.6 21 Norte 35 Norte 0 -- -- 20
2017-10-29 02:00:00 25.1 21 Norte 34 Norte 0 -- -- 20
2017-10-29 01:00:00 25.1 20 Norte 30 Norte 0 -- -- 21
2017-10-29 00:00:00 25.1 19 Norte 33 Norte 0 -- -- 21
2017-10-28 23:00:00 25.5 20 Norte 34 Norte 0 -- -- 20
2017-10-28 22:00:00 25.4 20 Norte 32 Norte 0 -- -- 21
2017-10-28 21:00:00 23.8 11 Norte 17 Nordeste 0 -- -- 24
2017-10-28 20:00:00 23.6 10 Nordeste 15 Nordeste 0 -- -- 31
2017-10-28 19:00:00 25.1 10 Nordeste 16 Norte 0 -- -- 29
2017-10-28 18:00:00 26.6 10 Nordeste 15 Nordeste 0 -- -- 25
2017-10-28 17:00:00 27.3 10 Nordeste 15 Nordeste 0 -- -- 27
2017-10-28 16:00:00 27.8 9 Nordeste 17 Nordeste 0 -- -- 26
2017-10-28 15:00:00 28.8 9 Nordeste 17 Nordeste 0 -- -- 23
2017-10-28 14:00:00 28.3 9 Nordeste 17 Este 0 -- -- 23
2017-10-28 13:00:00 28 5 Nordeste 13 Este 0 -- -- 24
2017-10-28 12:00:00 27 4 Nordeste 10 Norte 0 -- -- 26
2017-10-28 11:00:00 25.3 5 Nordeste 14 Norte 0 -- -- 32
2017-10-28 10:00:00 24.4 6 Norte 13 Norte 0 -- -- 28
2017-10-28 09:00:00 23.4 8 Norte 13 Norte 0 -- -- 28
2017-10-28 08:00:00 23.1 6 Norte 19 Norte 0 -- -- 29
2017-10-28 07:00:00 22.6 6 Noroeste 18 Norte 0 -- -- 28
2017-10-28 06:00:00 23.3 8 Norte 20 Norte 0 -- -- 28
2017-10-28 05:00:00 23.1 10 Noroeste 18 Noroeste 0 -- -- 27
2017-10-28 04:00:00 23.6 12 Norte 22 Nordeste 0 -- -- 28
2017-10-28 03:00:00 23.2 10 Norte 21 Noroeste 0 -- -- 27
2017-10-28 02:00:00 24.8 10 Norte 19 Norte 0 -- -- 26
2017-10-28 01:00:00 25.6 14 Norte 21 Norte 0 -- -- 25
2017-10-28 00:00:00 25.5 16 Norte 26 Norte 0 -- -- 26
2017-10-27 23:00:00 25.5 16 Norte 23 Norte 0 -- -- 26
2017-10-27 22:00:00 25.8 13 Norte 21 Norte 0 -- -- 26
2017-10-27 21:00:00 26 13 Norte 19 Norte 0 -- -- 25
2017-10-27 20:00:00 26 11 Norte 17 Norte 0 -- -- 25
2017-10-27 19:00:00 26.3 10 Norte 16 Norte 0 -- -- 26
2017-10-27 18:00:00 27.1 6 Norte 18 Norte 0 -- -- 25
2017-10-27 17:00:00 28.4 8 Nordeste 19 Este 0 -- -- 24
2017-10-27 16:00:00 28.1 6 Este 23 Este 0 -- -- 26
2017-10-27 15:00:00 28.2 10 Sudeste 20 Sur 0 -- -- 29
2017-10-27 14:00:00 28.2 7 Este 21 Sur 0 -- -- 30
2017-10-27 13:00:00 27.8 11 Sur 21 Sudeste 0 -- -- 32
2017-10-27 12:00:00 26.5 7 Este 24 Nordeste 0 -- -- 33
2017-10-27 11:00:00 25.9 12 Nordeste 24 Nordeste 0 -- -- 34
2017-10-27 10:00:00 24.6 6 Nordeste 21 Norte 0 -- -- 35
2017-10-27 09:00:00 22.9 8 Noroeste 19 Este 0 -- -- 40
2017-10-27 08:00:00 22.6 6 Este 21 Nordeste 0 -- -- 41
2017-10-27 07:00:00 23.1 6 Nordeste 18 Sudeste 0 -- -- 43
2017-10-27 06:00:00 23.3 6 Norte 19 Nordeste 0 -- -- 42
2017-10-27 05:00:00 23.2 5 Norte 31 Este 0 -- -- 44
2017-10-27 04:00:00 23.9 9 Sudeste 36 Este 0 -- -- 41
2017-10-27 03:00:00 24.8 18 Este 35 Este 0 -- -- 39
2017-10-27 02:00:00 25 13 Norte 24 Norte 0 -- -- 31
2017-10-27 01:00:00 25.6 12 Norte 27 Norte 0 -- -- 26
2017-10-27 00:00:00 25.8 15 Norte 22 Norte 0 -- -- 27
2017-10-26 23:00:00 26 11 Norte 15 Norte 0 -- -- 25
2017-10-26 22:00:00 26.8 8 Norte 15 Norte 0 -- -- 23
2017-10-26 21:00:00 26.5 8 Norte 13 Norte 0 -- -- 24
2017-10-26 20:00:00 27 6 Nordeste 11 Nordeste 0 -- -- 24
2017-10-26 19:00:00 28.2 4 Este 23 Sur 0 -- -- 24
2017-10-26 18:00:00 29.6 10 Sur 16 Sur 0 -- -- 23
2017-10-26 17:00:00 29.8 10 Sudeste 20 Sur 0 -- -- 24
2017-10-26 16:00:00 30.6 10 Sur 27 Sur 0 -- -- 23
2017-10-26 15:00:00 29.7 14 Sur 28 Sur 0 -- -- 26
2017-10-26 14:00:00 30.7 18 Sur 33 Sur 0 -- -- 25
2017-10-26 13:00:00 30.2 18 Sur 32 Sur 0 -- -- 25
2017-10-26 12:00:00 30.7 18 Sur 31 Sudoeste 0 -- -- 24
2017-10-26 11:00:00 29.9 17 Sur 31 Sur 0 -- -- 25
2017-10-26 10:00:00 28.3 17 Sudoeste 28 Sudoeste 0 -- -- 26
2017-10-26 09:00:00 24.8 6 Sudoeste 9 Noroeste 0 -- -- 33
2017-10-26 08:00:00 23.8 4 Noroeste 9 Noroeste 0 -- -- 32
2017-10-26 07:00:00 22.7 4 Noroeste 13 Noroeste 0 -- -- 35
2017-10-26 06:00:00 21.9 4 Norte 9 Este 0 -- -- 46
2017-10-26 05:00:00 22.7 6 Norte 8 Norte 0 -- -- 37
2017-10-26 04:00:00 22.5 5 Norte 8 Norte 0 -- -- 35
2017-10-26 03:00:00 22.5 5 Norte 9 Norte 0 -- -- 37
2017-10-26 02:00:00 22.7 4 Nordeste 9 Nordeste 0 -- -- 36
2017-10-26 01:00:00 24.6 3 Sur 7 Sudoeste 0 -- -- 32
2017-10-26 00:00:00 25.4 5 Noroeste 6 Noroeste 0 -- -- 30